sensor_id;sensor_type;location;lat;lon;timestamp;temperature;humidity
24632;DHT22;59977;48.782;9.190;2023-08-06T00:01:53;18.90;99.90
24632;DHT22;59977;48.782;9.190;2023-08-06T00:04:19;19.40;99.90
24632;DHT22;59977;48.782;9.190;2023-08-06T00:06:45;19.00;99.90
24632;DHT22;59977;48.782;9.190;2023-08-06T00:09:10;18.90;99.90
24632;DHT22;59977;48.782;9.190;2023-08-06T00:21:20;18.20;99.90
24632;DHT22;59977;48.782;9.190;2023-08-06T00:23:45;18.50;99.90
24632;DHT22;59977;48.782;9.190;2023-08-06T00:31:03;18.40;99.90
24632;DHT22;59977;48.782;9.190;2023-08-06T00:33:28;18.30;99.90
24632;DHT22;59977;48.782;9.190;2023-08-06T00:43:12;18.00;99.90
24632;DHT22;59977;48.782;9.190;2023-08-06T00:48:05;18.00;99.90
24632;DHT22;59977;48.782;9.190;2023-08-06T00:55:24;17.90;99.90
24632;DHT22;59977;48.782;9.190;2023-08-06T01:00:19;18.10;99.90
24632;DHT22;59977;48.782;9.190;2023-08-06T01:31:30;17.90;99.90
24632;DHT22;59977;48.782;9.190;2023-08-06T01:38:52;17.90;99.90
24632;DHT22;59977;48.782;9.190;2023-08-06T01:43:44;17.90;99.90
24632;DHT22;59977;48.782;9.190;2023-08-06T01:51:04;17.80;99.90
24632;DHT22;59977;48.782;9.190;2023-08-06T01:53:31;18.20;99.90
24632;DHT22;59977;48.782;9.190;2023-08-06T02:00:49;17.60;99.90
24632;DHT22;59977;48.782;9.190;2023-08-06T02:03:15;17.70;99.90
24632;DHT22;59977;48.782;9.190;2023-08-06T02:05:40;17.40;99.90
24632;DHT22;59977;48.782;9.190;2023-08-06T02:15:24;17.30;99.90
24632;DHT22;59977;48.782;9.190;2023-08-06T02:25:08;17.50;99.90
24632;DHT22;59977;48.782;9.190;2023-08-06T02:32:25;17.20;99.90
24632;DHT22;59977;48.782;9.190;2023-08-06T02:34:51;17.20;99.90
24632;DHT22;59977;48.782;9.190;2023-08-06T02:37:16;17.10;99.90
24632;DHT22;59977;48.782;9.190;2023-08-06T02:39:42;17.00;99.90
24632;DHT22;59977;48.782;9.190;2023-08-06T02:42:08;17.00;99.90
24632;DHT22;59977;48.782;9.190;2023-08-06T02:44:34;16.90;99.90
24632;DHT22;59977;48.782;9.190;2023-08-06T02:47:01;16.90;99.90
24632;DHT22;59977;48.782;9.190;2023-08-06T02:49:26;16.90;99.90
24632;DHT22;59977;48.782;9.190;2023-08-06T02:51:52;16.90;99.90
24632;DHT22;59977;48.782;9.190;2023-08-06T02:54:18;17.00;99.90
24632;DHT22;59977;48.782;9.190;2023-08-06T02:56:45;16.90;99.90
24632;DHT22;59977;48.782;9.190;2023-08-06T02:59:11;16.90;99.90
24632;DHT22;59977;48.782;9.190;2023-08-06T03:01:36;16.90;99.90
24632;DHT22;59977;48.782;9.190;2023-08-06T03:04:02;17.50;99.90
24632;DHT22;59977;48.782;9.190;2023-08-06T03:06:28;17.00;99.90
24632;DHT22;59977;48.782;9.190;2023-08-06T03:08:53;17.00;99.90
24632;DHT22;59977;48.782;9.190;2023-08-06T03:11:19;17.00;99.90
24632;DHT22;59977;48.782;9.190;2023-08-06T03:13:44;17.00;99.90
24632;DHT22;59977;48.782;9.190;2023-08-06T03:16:10;17.00;99.90
24632;DHT22;59977;48.782;9.190;2023-08-06T03:18:35;17.00;99.90
24632;DHT22;59977;48.782;9.190;2023-08-06T03:21:01;17.00;99.90
24632;DHT22;59977;48.782;9.190;2023-08-06T03:23:27;17.00;99.90
24632;DHT22;59977;48.782;9.190;2023-08-06T03:25:52;17.00;99.90
24632;DHT22;59977;48.782;9.190;2023-08-06T03:28:18;17.50;99.90
24632;DHT22;59977;48.782;9.190;2023-08-06T03:30:43;17.10;99.90
24632;DHT22;59977;48.782;9.190;2023-08-06T03:33:09;17.80;99.90
24632;DHT22;59977;48.782;9.190;2023-08-06T03:35:35;17.00;99.90
24632;DHT22;59977;48.782;9.190;2023-08-06T03:38:00;17.10;99.90
24632;DHT22;59977;48.782;9.190;2023-08-06T03:40:26;16.90;99.90
24632;DHT22;59977;48.782;9.190;2023-08-06T03:42:51;17.00;99.90
24632;DHT22;59977;48.782;9.190;2023-08-06T03:45:17;17.00;99.90
24632;DHT22;59977;48.782;9.190;2023-08-06T03:47:43;16.90;99.90
24632;DHT22;59977;48.782;9.190;2023-08-06T03:50:09;16.90;99.90
24632;DHT22;59977;48.782;9.190;2023-08-06T03:52:34;16.90;99.90
24632;DHT22;59977;48.782;9.190;2023-08-06T03:55:00;17.00;99.90
24632;DHT22;59977;48.782;9.190;2023-08-06T03:57:25;17.00;99.90
24632;DHT22;59977;48.782;9.190;2023-08-06T03:59:51;17.10;99.90
24632;DHT22;59977;48.782;9.190;2023-08-06T04:02:16;17.00;99.90
24632;DHT22;59977;48.782;9.190;2023-08-06T04:04:42;17.50;99.90
24632;DHT22;59977;48.782;9.190;2023-08-06T04:07:08;17.00;99.90
24632;DHT22;59977;48.782;9.190;2023-08-06T04:09:33;17.00;99.90
24632;DHT22;59977;48.782;9.190;2023-08-06T04:11:59;17.10;99.90
24632;DHT22;59977;48.782;9.190;2023-08-06T04:14:27;17.00;99.90
24632;DHT22;59977;48.782;9.190;2023-08-06T04:16:53;17.10;99.90
24632;DHT22;59977;48.782;9.190;2023-08-06T04:19:18;17.10;99.90
24632;DHT22;59977;48.782;9.190;2023-08-06T04:21:44;17.00;99.90
24632;DHT22;59977;48.782;9.190;2023-08-06T04:24:09;17.00;99.90
24632;DHT22;59977;48.782;9.190;2023-08-06T04:26:35;16.90;99.90
24632;DHT22;59977;48.782;9.190;2023-08-06T04:29:00;16.90;99.90
24632;DHT22;59977;48.782;9.190;2023-08-06T04:31:26;17.20;99.90
24632;DHT22;59977;48.782;9.190;2023-08-06T04:33:52;17.00;99.90
24632;DHT22;59977;48.782;9.190;2023-08-06T04:36:17;17.00;99.90
24632;DHT22;59977;48.782;9.190;2023-08-06T04:38:43;17.10;99.90
24632;DHT22;59977;48.782;9.190;2023-08-06T04:41:11;17.10;99.90
24632;DHT22;59977;48.782;9.190;2023-08-06T04:43:36;17.10;99.90
24632;DHT22;59977;48.782;9.190;2023-08-06T04:46:02;17.10;99.90
24632;DHT22;59977;48.782;9.190;2023-08-06T04:48:28;17.10;99.90
24632;DHT22;59977;48.782;9.190;2023-08-06T04:50:53;17.20;99.90
24632;DHT22;59977;48.782;9.190;2023-08-06T04:53:19;17.20;99.90
24632;DHT22;59977;48.782;9.190;2023-08-06T04:55:45;17.20;99.90
24632;DHT22;59977;48.782;9.190;2023-08-06T04:58:11;17.20;99.90
24632;DHT22;59977;48.782;9.190;2023-08-06T05:00:37;17.10;99.90
24632;DHT22;59977;48.782;9.190;2023-08-06T05:03:03;17.00;99.90
24632;DHT22;59977;48.782;9.190;2023-08-06T05:05:29;16.90;99.90
24632;DHT22;59977;48.782;9.190;2023-08-06T05:07:56;16.90;99.90
24632;DHT22;59977;48.782;9.190;2023-08-06T05:10:24;16.90;99.90
24632;DHT22;59977;48.782;9.190;2023-08-06T05:12:50;16.90;99.90
24632;DHT22;59977;48.782;9.190;2023-08-06T05:15:16;16.80;99.90
24632;DHT22;59977;48.782;9.190;2023-08-06T05:17:41;16.80;99.90
24632;DHT22;59977;48.782;9.190;2023-08-06T05:20:07;16.80;99.90
24632;DHT22;59977;48.782;9.190;2023-08-06T05:22:33;16.70;99.90
24632;DHT22;59977;48.782;9.190;2023-08-06T05:24:58;16.80;99.90
24632;DHT22;59977;48.782;9.190;2023-08-06T05:27:24;16.80;99.90
24632;DHT22;59977;48.782;9.190;2023-08-06T05:29:49;16.90;99.90
24632;DHT22;59977;48.782;9.190;2023-08-06T05:32:15;17.00;99.90
24632;DHT22;59977;48.782;9.190;2023-08-06T05:34:40;17.00;99.90
24632;DHT22;59977;48.782;9.190;2023-08-06T05:37:07;17.00;99.90
24632;DHT22;59977;48.782;9.190;2023-08-06T05:39:32;17.10;99.90
24632;DHT22;59977;48.782;9.190;2023-08-06T05:41:58;17.10;99.90
24632;DHT22;59977;48.782;9.190;2023-08-06T05:44:23;17.20;99.90
24632;DHT22;59977;48.782;9.190;2023-08-06T05:46:49;17.20;99.90
24632;DHT22;59977;48.782;9.190;2023-08-06T05:49:15;17.30;99.90
24632;DHT22;59977;48.782;9.190;2023-08-06T05:51:41;17.40;99.90
24632;DHT22;59977;48.782;9.190;2023-08-06T05:54:07;17.30;99.90
24632;DHT22;59977;48.782;9.190;2023-08-06T05:56:33;17.30;99.90
24632;DHT22;59977;48.782;9.190;2023-08-06T05:58:58;17.30;99.90
24632;DHT22;59977;48.782;9.190;2023-08-06T06:01:24;17.30;99.90
24632;DHT22;59977;48.782;9.190;2023-08-06T06:03:49;17.40;99.90
24632;DHT22;59977;48.782;9.190;2023-08-06T06:06:15;17.30;99.90
24632;DHT22;59977;48.782;9.190;2023-08-06T06:08:41;17.30;99.90
24632;DHT22;59977;48.782;9.190;2023-08-06T06:11:07;17.40;99.90
24632;DHT22;59977;48.782;9.190;2023-08-06T06:13:33;17.40;99.90
24632;DHT22;59977;48.782;9.190;2023-08-06T06:15:58;17.30;99.90
24632;DHT22;59977;48.782;9.190;2023-08-06T06:18:24;17.30;99.90
24632;DHT22;59977;48.782;9.190;2023-08-06T06:20:49;17.20;99.90
24632;DHT22;59977;48.782;9.190;2023-08-06T06:23:15;17.20;99.90
24632;DHT22;59977;48.782;9.190;2023-08-06T06:25:47;17.30;99.90
24632;DHT22;59977;48.782;9.190;2023-08-06T06:28:13;17.30;99.90
24632;DHT22;59977;48.782;9.190;2023-08-06T06:30:40;17.30;99.90
24632;DHT22;59977;48.782;9.190;2023-08-06T06:33:06;17.30;99.90
24632;DHT22;59977;48.782;9.190;2023-08-06T06:35:31;17.20;99.90
24632;DHT22;59977;48.782;9.190;2023-08-06T06:37:57;17.20;99.90
24632;DHT22;59977;48.782;9.190;2023-08-06T06:40:23;17.10;99.90
24632;DHT22;59977;48.782;9.190;2023-08-06T06:42:48;17.10;99.90
24632;DHT22;59977;48.782;9.190;2023-08-06T06:45:14;17.20;99.90
24632;DHT22;59977;48.782;9.190;2023-08-06T06:47:39;17.20;99.90
24632;DHT22;59977;48.782;9.190;2023-08-06T06:50:05;17.30;99.90
24632;DHT22;59977;48.782;9.190;2023-08-06T06:52:31;17.50;99.90
24632;DHT22;59977;48.782;9.190;2023-08-06T06:54:57;17.60;99.90
24632;DHT22;59977;48.782;9.190;2023-08-06T06:57:22;17.60;99.90
24632;DHT22;59977;48.782;9.190;2023-08-06T06:59:48;17.60;99.90
24632;DHT22;59977;48.782;9.190;2023-08-06T07:02:13;17.60;99.90
24632;DHT22;59977;48.782;9.190;2023-08-06T07:04:39;17.70;99.90
24632;DHT22;59977;48.782;9.190;2023-08-06T07:07:05;17.70;99.90
24632;DHT22;59977;48.782;9.190;2023-08-06T07:09:30;17.50;99.90
24632;DHT22;59977;48.782;9.190;2023-08-06T07:11:56;17.50;99.90
24632;DHT22;59977;48.782;9.190;2023-08-06T07:14:25;17.40;99.90
24632;DHT22;59977;48.782;9.190;2023-08-06T07:16:50;17.30;99.90
24632;DHT22;59977;48.782;9.190;2023-08-06T07:19:16;17.20;99.90
24632;DHT22;59977;48.782;9.190;2023-08-06T07:21:42;17.30;99.90
24632;DHT22;59977;48.782;9.190;2023-08-06T07:24:07;17.20;99.90
24632;DHT22;59977;48.782;9.190;2023-08-06T07:26:33;17.10;99.90
24632;DHT22;59977;48.782;9.190;2023-08-06T07:28:58;17.10;99.90
24632;DHT22;59977;48.782;9.190;2023-08-06T07:31:24;17.00;99.90
24632;DHT22;59977;48.782;9.190;2023-08-06T07:33:49;17.00;99.90
24632;DHT22;59977;48.782;9.190;2023-08-06T07:36:15;16.90;99.90
24632;DHT22;59977;48.782;9.190;2023-08-06T07:38:41;16.90;99.90
24632;DHT22;59977;48.782;9.190;2023-08-06T07:41:07;17.00;99.90
24632;DHT22;59977;48.782;9.190;2023-08-06T07:43:33;16.90;99.90
24632;DHT22;59977;48.782;9.190;2023-08-06T07:45:59;16.90;99.90
24632;DHT22;59977;48.782;9.190;2023-08-06T07:48:28;17.00;99.90
24632;DHT22;59977;48.782;9.190;2023-08-06T07:50:54;17.10;99.90
24632;DHT22;59977;48.782;9.190;2023-08-06T07:53:21;17.10;99.90
24632;DHT22;59977;48.782;9.190;2023-08-06T07:55:51;17.30;99.90
24632;DHT22;59977;48.782;9.190;2023-08-06T07:58:18;17.30;99.90
24632;DHT22;59977;48.782;9.190;2023-08-06T08:00:43;17.50;99.90
24632;DHT22;59977;48.782;9.190;2023-08-06T08:03:14;17.60;99.90
24632;DHT22;59977;48.782;9.190;2023-08-06T08:05:41;17.60;99.90
24632;DHT22;59977;48.782;9.190;2023-08-06T08:08:07;17.70;99.90
24632;DHT22;59977;48.782;9.190;2023-08-06T08:10:33;17.90;99.90
24632;DHT22;59977;48.782;9.190;2023-08-06T08:12:59;17.90;99.90
24632;DHT22;59977;48.782;9.190;2023-08-06T08:15:25;17.90;99.90
24632;DHT22;59977;48.782;9.190;2023-08-06T08:17:53;17.80;99.90
24632;DHT22;59977;48.782;9.190;2023-08-06T08:20:18;18.00;99.90
24632;DHT22;59977;48.782;9.190;2023-08-06T08:22:44;18.00;99.90
24632;DHT22;59977;48.782;9.190;2023-08-06T08:25:10;18.10;99.90
24632;DHT22;59977;48.782;9.190;2023-08-06T08:27:35;18.20;99.90
24632;DHT22;59977;48.782;9.190;2023-08-06T08:30:01;18.40;99.90
24632;DHT22;59977;48.782;9.190;2023-08-06T08:32:27;18.40;99.90
24632;DHT22;59977;48.782;9.190;2023-08-06T08:34:52;18.60;99.90
24632;DHT22;59977;48.782;9.190;2023-08-06T08:37:19;18.70;99.90
24632;DHT22;59977;48.782;9.190;2023-08-06T08:39:44;18.80;99.90
24632;DHT22;59977;48.782;9.190;2023-08-06T08:42:10;18.70;99.90
24632;DHT22;59977;48.782;9.190;2023-08-06T08:44:36;18.60;99.90
24632;DHT22;59977;48.782;9.190;2023-08-06T08:47:06;18.70;99.90
24632;DHT22;59977;48.782;9.190;2023-08-06T08:49:32;18.60;99.90
24632;DHT22;59977;48.782;9.190;2023-08-06T08:51:59;18.50;99.90
24632;DHT22;59977;48.782;9.190;2023-08-06T08:54:27;18.50;99.90
24632;DHT22;59977;48.782;9.190;2023-08-06T08:56:53;18.30;99.90
24632;DHT22;59977;48.782;9.190;2023-08-06T08:59:20;18.20;99.90
24632;DHT22;59977;48.782;9.190;2023-08-06T09:01:47;18.10;99.90
24632;DHT22;59977;48.782;9.190;2023-08-06T09:04:16;18.10;99.90
24632;DHT22;59977;48.782;9.190;2023-08-06T09:06:43;18.10;99.90
24632;DHT22;59977;48.782;9.190;2023-08-06T09:09:17;17.90;99.90
24632;DHT22;59977;48.782;9.190;2023-08-06T09:11:48;17.80;99.90
24632;DHT22;59977;48.782;9.190;2023-08-06T09:14:15;17.70;99.90
24632;DHT22;59977;48.782;9.190;2023-08-06T09:16:40;17.70;99.90
24632;DHT22;59977;48.782;9.190;2023-08-06T09:19:13;17.80;99.90
24632;DHT22;59977;48.782;9.190;2023-08-06T09:21:41;18.00;99.90
24632;DHT22;59977;48.782;9.190;2023-08-06T09:24:11;18.00;99.90
24632;DHT22;59977;48.782;9.190;2023-08-06T09:26:42;18.20;99.90
24632;DHT22;59977;48.782;9.190;2023-08-06T09:29:09;18.40;99.90
24632;DHT22;59977;48.782;9.190;2023-08-06T09:31:40;18.40;99.90
24632;DHT22;59977;48.782;9.190;2023-08-06T09:34:10;18.50;99.90
24632;DHT22;59977;48.782;9.190;2023-08-06T09:36:40;18.60;99.90
24632;DHT22;59977;48.782;9.190;2023-08-06T09:39:27;18.70;99.90
24632;DHT22;59977;48.782;9.190;2023-08-06T09:42:00;18.60;99.90
24632;DHT22;59977;48.782;9.190;2023-08-06T09:44:28;18.50;99.90
24632;DHT22;59977;48.782;9.190;2023-08-06T09:46:58;18.40;99.90
24632;DHT22;59977;48.782;9.190;2023-08-06T09:51:59;18.20;99.90
24632;DHT22;59977;48.782;9.190;2023-08-06T09:54:26;18.30;99.90
24632;DHT22;59977;48.782;9.190;2023-08-06T09:56:53;18.40;99.90
24632;DHT22;59977;48.782;9.190;2023-08-06T09:59:19;18.50;99.90
24632;DHT22;59977;48.782;9.190;2023-08-06T10:01:45;18.50;99.90
24632;DHT22;59977;48.782;9.190;2023-08-06T10:04:14;18.50;99.90
24632;DHT22;59977;48.782;9.190;2023-08-06T10:06:42;18.40;99.90
24632;DHT22;59977;48.782;9.190;2023-08-06T10:09:09;18.30;99.90
24632;DHT22;59977;48.782;9.190;2023-08-06T10:11:36;18.20;99.90
24632;DHT22;59977;48.782;9.190;2023-08-06T10:14:11;18.10;99.90
24632;DHT22;59977;48.782;9.190;2023-08-06T10:16:38;18.10;99.90
24632;DHT22;59977;48.782;9.190;2023-08-06T10:19:05;18.10;99.90
24632;DHT22;59977;48.782;9.190;2023-08-06T10:21:32;18.00;99.90
24632;DHT22;59977;48.782;9.190;2023-08-06T10:23:58;18.10;99.90
24632;DHT22;59977;48.782;9.190;2023-08-06T10:26:29;18.00;99.90
24632;DHT22;59977;48.782;9.190;2023-08-06T10:28:56;17.90;99.90
24632;DHT22;59977;48.782;9.190;2023-08-06T10:32:00;17.90;99.90
24632;DHT22;59977;48.782;9.190;2023-08-06T10:37:25;17.90;99.90
24632;DHT22;59977;48.782;9.190;2023-08-06T10:39:59;18.00;99.90
24632;DHT22;59977;48.782;9.190;2023-08-06T10:42:29;18.10;99.90
24632;DHT22;59977;48.782;9.190;2023-08-06T10:45:17;18.20;99.90
24632;DHT22;59977;48.782;9.190;2023-08-06T10:47:44;18.40;99.90
24632;DHT22;59977;48.782;9.190;2023-08-06T10:50:16;18.60;99.90
24632;DHT22;59977;48.782;9.190;2023-08-06T10:52:46;18.60;99.90
24632;DHT22;59977;48.782;9.190;2023-08-06T10:55:13;18.60;99.90
24632;DHT22;59977;48.782;9.190;2023-08-06T10:57:38;18.50;99.90
24632;DHT22;59977;48.782;9.190;2023-08-06T11:00:06;18.30;99.90
24632;DHT22;59977;48.782;9.190;2023-08-06T11:02:38;18.30;99.90
24632;DHT22;59977;48.782;9.190;2023-08-06T11:05:10;18.40;99.90
24632;DHT22;59977;48.782;9.190;2023-08-06T11:07:37;18.40;99.90
24632;DHT22;59977;48.782;9.190;2023-08-06T11:10:04;18.30;99.90
24632;DHT22;59977;48.782;9.190;2023-08-06T11:12:31;18.20;99.90
24632;DHT22;59977;48.782;9.190;2023-08-06T11:14:56;18.10;99.90
24632;DHT22;59977;48.782;9.190;2023-08-06T11:17:22;18.00;99.90
24632;DHT22;59977;48.782;9.190;2023-08-06T11:19:48;18.00;99.90
24632;DHT22;59977;48.782;9.190;2023-08-06T11:22:14;18.10;99.90
24632;DHT22;59977;48.782;9.190;2023-08-06T11:24:40;18.20;99.90
24632;DHT22;59977;48.782;9.190;2023-08-06T11:27:13;18.20;99.90
24632;DHT22;59977;48.782;9.190;2023-08-06T11:29:42;18.10;99.90
24632;DHT22;59977;48.782;9.190;2023-08-06T11:32:09;18.10;99.90
24632;DHT22;59977;48.782;9.190;2023-08-06T11:34:35;18.20;99.90
24632;DHT22;59977;48.782;9.190;2023-08-06T11:37:03;18.30;99.90
24632;DHT22;59977;48.782;9.190;2023-08-06T11:39:34;18.40;99.90
24632;DHT22;59977;48.782;9.190;2023-08-06T11:42:00;18.40;99.90
24632;DHT22;59977;48.782;9.190;2023-08-06T11:44:30;18.30;99.90
24632;DHT22;59977;48.782;9.190;2023-08-06T11:46:59;18.20;99.90
24632;DHT22;59977;48.782;9.190;2023-08-06T11:49:38;18.20;99.90
24632;DHT22;59977;48.782;9.190;2023-08-06T11:52:26;18.10;99.90
24632;DHT22;59977;48.782;9.190;2023-08-06T11:55:04;18.10;99.90
24632;DHT22;59977;48.782;9.190;2023-08-06T11:57:34;17.90;99.90
24632;DHT22;59977;48.782;9.190;2023-08-06T12:00:13;17.90;99.90
24632;DHT22;59977;48.782;9.190;2023-08-06T12:02:41;17.80;99.90
24632;DHT22;59977;48.782;9.190;2023-08-06T12:05:16;17.70;99.90
24632;DHT22;59977;48.782;9.190;2023-08-06T12:07:44;17.70;99.90
24632;DHT22;59977;48.782;9.190;2023-08-06T12:10:11;17.80;99.90
24632;DHT22;59977;48.782;9.190;2023-08-06T12:12:37;17.20;99.90
24632;DHT22;59977;48.782;9.190;2023-08-06T12:15:05;17.10;99.90
24632;DHT22;59977;48.782;9.190;2023-08-06T12:17:31;17.10;99.90
24632;DHT22;59977;48.782;9.190;2023-08-06T12:19:57;17.20;99.90
24632;DHT22;59977;48.782;9.190;2023-08-06T12:22:23;17.20;99.90
24632;DHT22;59977;48.782;9.190;2023-08-06T12:24:49;17.40;99.90
24632;DHT22;59977;48.782;9.190;2023-08-06T12:27:15;17.50;99.90
24632;DHT22;59977;48.782;9.190;2023-08-06T12:29:47;17.50;99.90
24632;DHT22;59977;48.782;9.190;2023-08-06T12:32:13;17.60;99.90
24632;DHT22;59977;48.782;9.190;2023-08-06T12:34:39;17.60;99.90
24632;DHT22;59977;48.782;9.190;2023-08-06T12:37:06;17.80;99.90
24632;DHT22;59977;48.782;9.190;2023-08-06T12:39:33;18.00;99.90
24632;DHT22;59977;48.782;9.190;2023-08-06T12:42:00;18.20;99.90
24632;DHT22;59977;48.782;9.190;2023-08-06T12:44:25;18.40;99.90
24632;DHT22;59977;48.782;9.190;2023-08-06T12:46:52;18.50;99.90
24632;DHT22;59977;48.782;9.190;2023-08-06T12:49:18;18.70;99.90
24632;DHT22;59977;48.782;9.190;2023-08-06T12:51:46;18.80;99.90
24632;DHT22;59977;48.782;9.190;2023-08-06T12:54:12;19.00;99.90
24632;DHT22;59977;48.782;9.190;2023-08-06T12:56:38;19.20;99.90
24632;DHT22;59977;48.782;9.190;2023-08-06T12:59:03;19.40;99.90
24632;DHT22;59977;48.782;9.190;2023-08-06T13:01:29;19.40;99.90
24632;DHT22;59977;48.782;9.190;2023-08-06T13:03:54;18.90;99.90
24632;DHT22;59977;48.782;9.190;2023-08-06T13:06:20;18.70;99.90
24632;DHT22;59977;48.782;9.190;2023-08-06T13:08:45;18.70;99.90
24632;DHT22;59977;48.782;9.190;2023-08-06T13:11:11;18.90;99.90
24632;DHT22;59977;48.782;9.190;2023-08-06T13:13:37;18.90;99.90
24632;DHT22;59977;48.782;9.190;2023-08-06T13:16:03;18.90;99.90
24632;DHT22;59977;48.782;9.190;2023-08-06T13:18:28;18.80;99.90
24632;DHT22;59977;48.782;9.190;2023-08-06T13:20:54;18.80;99.90
24632;DHT22;59977;48.782;9.190;2023-08-06T13:23:20;18.90;99.90
24632;DHT22;59977;48.782;9.190;2023-08-06T13:25:46;18.70;99.90
24632;DHT22;59977;48.782;9.190;2023-08-06T13:28:12;18.70;99.90
24632;DHT22;59977;48.782;9.190;2023-08-06T13:30:39;18.80;99.90
24632;DHT22;59977;48.782;9.190;2023-08-06T13:33:10;19.00;99.90
24632;DHT22;59977;48.782;9.190;2023-08-06T13:35:36;19.20;99.90
24632;DHT22;59977;48.782;9.190;2023-08-06T13:38:02;19.20;99.90
24632;DHT22;59977;48.782;9.190;2023-08-06T13:40:29;19.10;99.90
24632;DHT22;59977;48.782;9.190;2023-08-06T13:42:55;18.80;99.90
24632;DHT22;59977;48.782;9.190;2023-08-06T13:45:21;18.60;99.90
24632;DHT22;59977;48.782;9.190;2023-08-06T13:47:47;18.50;99.90
24632;DHT22;59977;48.782;9.190;2023-08-06T13:50:13;18.50;99.90
24632;DHT22;59977;48.782;9.190;2023-08-06T13:52:39;18.50;99.90
24632;DHT22;59977;48.782;9.190;2023-08-06T13:55:05;18.40;99.90
24632;DHT22;59977;48.782;9.190;2023-08-06T13:57:31;18.50;99.90
24632;DHT22;59977;48.782;9.190;2023-08-06T13:59:56;18.60;99.90
24632;DHT22;59977;48.782;9.190;2023-08-06T14:02:23;18.50;99.90
24632;DHT22;59977;48.782;9.190;2023-08-06T14:04:48;18.40;99.90
24632;DHT22;59977;48.782;9.190;2023-08-06T14:07:14;18.30;99.90
24632;DHT22;59977;48.782;9.190;2023-08-06T14:09:40;18.30;99.90
24632;DHT22;59977;48.782;9.190;2023-08-06T14:12:07;18.30;99.90
24632;DHT22;59977;48.782;9.190;2023-08-06T14:14:32;18.30;99.90
24632;DHT22;59977;48.782;9.190;2023-08-06T14:16:58;18.30;99.90
24632;DHT22;59977;48.782;9.190;2023-08-06T14:19:24;18.50;99.90
24632;DHT22;59977;48.782;9.190;2023-08-06T14:21:49;18.60;99.90
24632;DHT22;59977;48.782;9.190;2023-08-06T14:24:15;18.70;99.90
24632;DHT22;59977;48.782;9.190;2023-08-06T14:26:41;18.70;99.90
24632;DHT22;59977;48.782;9.190;2023-08-06T14:29:06;18.70;99.90
24632;DHT22;59977;48.782;9.190;2023-08-06T14:31:32;18.70;99.90
24632;DHT22;59977;48.782;9.190;2023-08-06T14:33:58;18.90;99.90
24632;DHT22;59977;48.782;9.190;2023-08-06T14:36:23;18.90;99.90
24632;DHT22;59977;48.782;9.190;2023-08-06T14:38:49;19.00;99.90
24632;DHT22;59977;48.782;9.190;2023-08-06T14:41:15;18.90;99.90
24632;DHT22;59977;48.782;9.190;2023-08-06T14:43:40;18.80;99.90
24632;DHT22;59977;48.782;9.190;2023-08-06T14:46:06;18.70;99.90
24632;DHT22;59977;48.782;9.190;2023-08-06T14:48:31;18.50;99.90
24632;DHT22;59977;48.782;9.190;2023-08-06T14:50:57;18.30;99.90
24632;DHT22;59977;48.782;9.190;2023-08-06T14:53:22;18.20;99.90
24632;DHT22;59977;48.782;9.190;2023-08-06T14:55:48;18.00;99.90
24632;DHT22;59977;48.782;9.190;2023-08-06T14:58:14;18.00;99.90
24632;DHT22;59977;48.782;9.190;2023-08-06T15:00:40;17.90;99.90
24632;DHT22;59977;48.782;9.190;2023-08-06T15:03:05;17.70;99.90
24632;DHT22;59977;48.782;9.190;2023-08-06T15:05:31;17.50;99.90
24632;DHT22;59977;48.782;9.190;2023-08-06T15:07:56;17.40;99.90
24632;DHT22;59977;48.782;9.190;2023-08-06T15:10:22;17.40;99.90
24632;DHT22;59977;48.782;9.190;2023-08-06T15:12:48;17.50;99.90
24632;DHT22;59977;48.782;9.190;2023-08-06T15:15:14;17.90;99.90
24632;DHT22;59977;48.782;9.190;2023-08-06T15:17:40;18.30;99.90
24632;DHT22;59977;48.782;9.190;2023-08-06T15:20:06;18.50;99.90
24632;DHT22;59977;48.782;9.190;2023-08-06T15:22:32;18.90;99.90
24632;DHT22;59977;48.782;9.190;2023-08-06T15:25:01;19.10;99.90
24632;DHT22;59977;48.782;9.190;2023-08-06T15:27:27;19.10;99.90
24632;DHT22;59977;48.782;9.190;2023-08-06T15:29:53;19.20;99.90
24632;DHT22;59977;48.782;9.190;2023-08-06T15:32:19;19.40;99.90
24632;DHT22;59977;48.782;9.190;2023-08-06T15:34:46;19.30;99.90
24632;DHT22;59977;48.782;9.190;2023-08-06T15:37:12;19.20;99.90
24632;DHT22;59977;48.782;9.190;2023-08-06T15:39:38;19.50;99.90
24632;DHT22;59977;48.782;9.190;2023-08-06T15:42:04;20.70;99.90
24632;DHT22;59977;48.782;9.190;2023-08-06T15:44:29;21.30;99.90
24632;DHT22;59977;48.782;9.190;2023-08-06T15:46:55;21.00;99.90
24632;DHT22;59977;48.782;9.190;2023-08-06T15:49:21;22.10;99.90
24632;DHT22;59977;48.782;9.190;2023-08-06T15:51:46;22.40;99.90
24632;DHT22;59977;48.782;9.190;2023-08-06T15:54:12;24.20;99.90
24632;DHT22;59977;48.782;9.190;2023-08-06T15:56:38;24.50;97.20
24632;DHT22;59977;48.782;9.190;2023-08-06T15:59:29;25.10;96.20
24632;DHT22;59977;48.782;9.190;2023-08-06T16:01:55;24.90;94.10
24632;DHT22;59977;48.782;9.190;2023-08-06T16:04:25;25.50;93.60
24632;DHT22;59977;48.782;9.190;2023-08-06T16:06:51;24.70;92.60
24632;DHT22;59977;48.782;9.190;2023-08-06T16:09:17;23.40;94.30
24632;DHT22;59977;48.782;9.190;2023-08-06T16:11:44;21.90;96.50
24632;DHT22;59977;48.782;9.190;2023-08-06T16:14:09;21.10;98.80
24632;DHT22;59977;48.782;9.190;2023-08-06T16:16:35;20.90;99.90
24632;DHT22;59977;48.782;9.190;2023-08-06T16:19:02;20.70;99.90
24632;DHT22;59977;48.782;9.190;2023-08-06T16:21:28;20.80;99.90
24632;DHT22;59977;48.782;9.190;2023-08-06T16:23:53;21.20;99.60
24632;DHT22;59977;48.782;9.190;2023-08-06T16:26:19;22.40;98.10
24632;DHT22;59977;48.782;9.190;2023-08-06T16:28:45;22.90;96.30
24632;DHT22;59977;48.782;9.190;2023-08-06T16:31:10;21.80;97.70
24632;DHT22;59977;48.782;9.190;2023-08-06T16:33:36;20.60;99.70
24632;DHT22;59977;48.782;9.190;2023-08-06T16:36:05;19.70;99.90
24632;DHT22;59977;48.782;9.190;2023-08-06T16:38:31;19.00;99.90
24632;DHT22;59977;48.782;9.190;2023-08-06T16:40:57;18.70;99.90
24632;DHT22;59977;48.782;9.190;2023-08-06T16:43:23;18.40;99.90
24632;DHT22;59977;48.782;9.190;2023-08-06T16:45:52;18.30;99.90
24632;DHT22;59977;48.782;9.190;2023-08-06T16:48:17;18.30;99.90
24632;DHT22;59977;48.782;9.190;2023-08-06T16:50:46;18.10;99.90
24632;DHT22;59977;48.782;9.190;2023-08-06T16:53:11;18.00;99.90
24632;DHT22;59977;48.782;9.190;2023-08-06T16:55:37;17.80;99.90
24632;DHT22;59977;48.782;9.190;2023-08-06T16:58:03;17.20;99.90
24632;DHT22;59977;48.782;9.190;2023-08-06T17:00:28;16.80;99.90
24632;DHT22;59977;48.782;9.190;2023-08-06T17:02:54;16.30;99.90
24632;DHT22;59977;48.782;9.190;2023-08-06T17:05:20;16.10;99.90
24632;DHT22;59977;48.782;9.190;2023-08-06T17:07:45;16.00;99.90
24632;DHT22;59977;48.782;9.190;2023-08-06T17:10:14;16.00;99.90